Terminal Aerodrome Forecast
Issued by NWS Sterling, VA

Home | Current Version | Previous Version | Text Only | Print | Product List | Glossary On
Versions: 1 2 3 4 5 6 7 8 9 10 11 12 13 14 15 16 17 18 19 20 21 22 23
000
FTUS41 KLWX 291436 AAA
TAFBWI
TAF AMD
KBWI 291436Z 2915/3018 26009KT 6SM -SHRA VCTS BKN060CB OVC250
     FM291600 26009KT P6SM BKN120
     FM292000 25009KT P6SM VCTS BKN060CB
     FM300000 20006KT P6SM BKN060
     FM300600 VRB03KT P6SM SCT035
     FM300900 07004KT 4SM BR BKN015
     FM301200 08005KT P6SM BKN020
     FM301500 10007KT P6SM BKN035=

USA.gov is the U.S. government's official web portal to all federal, state and local government web resources and services.